createdAt,value
2019-05-29T00:00:08.379Z,58.70
2019-05-29T00:02:37.528Z,58.70
2019-05-29T00:05:07.968Z,58.80
2019-05-29T00:07:36.657Z,58.80
2019-05-29T00:10:06.235Z,58.80
2019-05-29T00:12:35.217Z,58.70
2019-05-29T00:15:03.974Z,58.80
2019-05-29T00:17:32.802Z,58.80
2019-05-29T00:20:01.441Z,58.80
2019-05-29T00:22:30.062Z,58.90
2019-05-29T00:24:58.686Z,58.90
2019-05-29T00:27:27.431Z,58.90
2019-05-29T00:29:56.026Z,58.90
2019-05-29T00:32:24.693Z,58.90
2019-05-29T00:34:53.378Z,58.80
2019-05-29T00:37:21.975Z,58.80
2019-05-29T00:39:51.086Z,58.80
2019-05-29T00:42:19.774Z,58.80
2019-05-29T00:44:48.763Z,58.80
2019-05-29T00:47:18.354Z,58.70
2019-05-29T00:49:47.645Z,58.80
2019-05-29T00:52:16.705Z,58.70
2019-05-29T00:54:45.481Z,58.80
2019-05-29T00:57:15.321Z,59.50
2019-05-29T00:59:44.371Z,59.00
2019-05-29T01:02:13.832Z,59.00
2019-05-29T01:04:42.495Z,59.00
2019-05-29T01:07:12.277Z,59.10
2019-05-29T01:09:40.949Z,59.10
2019-05-29T01:12:10.719Z,59.10
2019-05-29T01:14:49.796Z,59.10
2019-05-29T01:17:09.627Z,59.00
2019-05-29T01:19:38.369Z,59.70
2019-05-29T01:22:06.966Z,59.00
2019-05-29T01:24:35.607Z,59.00
2019-05-29T01:27:04.226Z,59.10
2019-05-29T01:29:33.010Z,59.00
2019-05-29T01:32:01.570Z,59.10
2019-05-29T01:34:30.173Z,59.10
2019-05-29T01:36:58.657Z,59.20
2019-05-29T01:39:27.732Z,59.20
2019-05-29T01:41:56.324Z,59.30
2019-05-29T01:44:24.884Z,59.20
2019-05-29T01:46:53.482Z,59.10
2019-05-29T01:49:22.049Z,59.10
2019-05-29T01:51:50.827Z,59.10
2019-05-29T01:54:19.707Z,59.20
2019-05-29T01:56:48.374Z,59.20
2019-05-29T01:59:17.751Z,59.30
2019-05-29T02:01:46.346Z,59.30
2019-05-29T02:04:15.815Z,59.30
2019-05-29T02:06:44.477Z,59.30
2019-05-29T02:09:12.965Z,59.30
2019-05-29T02:11:41.635Z,59.30
2019-05-29T02:14:10.335Z,59.30
2019-05-29T02:16:38.833Z,59.30
2019-05-29T02:19:07.446Z,59.30
2019-05-29T02:21:36.148Z,59.30
2019-05-29T02:24:04.738Z,59.30
2019-05-29T02:26:33.343Z,59.30
2019-05-29T02:29:02.004Z,59.30
2019-05-29T02:31:30.579Z,59.20
2019-05-29T02:33:59.185Z,59.30
2019-05-29T02:36:28.695Z,59.30
2019-05-29T02:38:57.364Z,59.40
2019-05-29T02:41:27.945Z,59.40
2019-05-29T02:43:56.391Z,59.50
2019-05-29T02:46:26.431Z,59.50
2019-05-29T02:48:55.220Z,59.50
2019-05-29T02:51:24.283Z,59.50
2019-05-29T02:53:52.881Z,59.50
2019-05-29T02:56:22.937Z,59.50
2019-05-29T02:58:51.738Z,59.60
2019-05-29T03:01:21.550Z,59.60
2019-05-29T03:03:50.733Z,59.60
2019-05-29T03:06:19.295Z,59.60
2019-05-29T03:08:47.906Z,59.60
2019-05-29T03:11:16.523Z,59.60
2019-05-29T03:13:45.066Z,59.60
2019-05-29T03:16:13.710Z,59.60
2019-05-29T03:18:42.280Z,59.60
2019-05-29T03:21:10.880Z,59.60
2019-05-29T03:23:39.460Z,59.60
2019-05-29T03:26:08.134Z,59.60
2019-05-29T03:28:38.262Z,59.60
2019-05-29T03:31:07.036Z,59.60
2019-05-29T03:33:44.808Z,59.60
2019-05-29T03:36:05.893Z,59.50
2019-05-29T03:38:35.030Z,59.50
2019-05-29T03:41:03.779Z,59.50
2019-05-29T03:43:35.049Z,59.50
2019-05-29T03:46:02.541Z,59.50
2019-05-29T03:48:32.415Z,59.50
2019-05-29T03:51:01.513Z,59.50
2019-05-29T03:53:31.688Z,59.50
2019-05-29T03:56:00.352Z,59.60
2019-05-29T03:58:30.806Z,59.60
2019-05-29T04:00:59.251Z,59.50
2019-05-29T04:03:28.968Z,59.60
2019-05-29T04:05:57.713Z,59.60
2019-05-29T04:08:27.428Z,59.60
2019-05-29T04:10:56.454Z,59.60
2019-05-29T04:13:25.019Z,59.50
2019-05-29T04:15:53.578Z,59.40
2019-05-29T04:18:22.092Z,59.30
2019-05-29T04:20:51.116Z,59.30
2019-05-29T04:23:19.607Z,59.20
2019-05-29T04:25:48.105Z,59.20
2019-05-29T04:28:16.718Z,59.10
2019-05-29T04:30:45.296Z,59.10
2019-05-29T04:33:13.893Z,59.00
2019-05-29T04:35:42.479Z,59.00
2019-05-29T04:38:11.068Z,58.90
2019-05-29T04:40:39.941Z,58.90
2019-05-29T04:43:08.460Z,58.80
2019-05-29T04:45:39.163Z,58.70
2019-05-29T04:48:07.203Z,58.60
2019-05-29T04:50:37.981Z,58.60
2019-05-29T04:53:05.936Z,58.50
2019-05-29T04:55:34.811Z,58.40
2019-05-29T04:58:03.450Z,58.30
2019-05-29T05:00:33.103Z,58.20
2019-05-29T05:03:02.370Z,58.20
2019-05-29T05:05:31.230Z,58.10
2019-05-29T05:07:59.925Z,58.00
2019-05-29T05:10:36.246Z,58.00
2019-05-29T05:13:06.991Z,57.90
2019-05-29T05:15:36.355Z,57.80
2019-05-29T05:18:05.668Z,57.70
2019-05-29T05:20:34.176Z,57.60
2019-05-29T05:23:03.116Z,57.60
2019-05-29T05:25:32.219Z,57.60
2019-05-29T05:28:00.857Z,57.60
2019-05-29T05:30:30.369Z,57.50
2019-05-29T05:32:59.135Z,57.50
2019-05-29T05:35:27.833Z,57.40
2019-05-29T05:37:58.956Z,57.40
2019-05-29T05:40:27.759Z,57.30
2019-05-29T05:42:56.415Z,57.20
2019-05-29T05:45:25.014Z,57.30
2019-05-29T05:47:57.759Z,57.20
2019-05-29T05:50:24.188Z,57.20
2019-05-29T05:52:55.088Z,57.10
2019-05-29T05:55:23.784Z,57.00
2019-05-29T05:57:52.474Z,57.00
2019-05-29T06:00:31.926Z,57.00
2019-05-29T06:03:08.434Z,57.10
2019-05-29T06:05:38.207Z,57.10
2019-05-29T06:08:06.818Z,57.10
2019-05-29T06:10:36.095Z,57.00
2019-05-29T06:13:04.758Z,57.00
2019-05-29T06:15:34.273Z,56.90
2019-05-29T06:18:19.814Z,56.90
2019-05-29T06:20:34.597Z,56.80
2019-05-29T06:23:03.307Z,56.80
2019-05-29T06:25:33.619Z,56.80
2019-05-29T06:28:02.115Z,56.70
2019-05-29T06:30:30.705Z,56.70
2019-05-29T06:32:59.582Z,56.60
2019-05-29T06:35:28.209Z,56.60
2019-05-29T06:37:56.704Z,56.50
2019-05-29T06:40:44.368Z,56.50
2019-05-29T06:43:35.723Z,56.60
2019-05-29T06:46:04.331Z,56.60
2019-05-29T06:48:46.662Z,56.40
2019-05-29T06:51:03.116Z,56.30
2019-05-29T06:53:31.699Z,56.30
2019-05-29T06:56:01.764Z,56.10
2019-05-29T06:58:30.500Z,56.10
2019-05-29T07:00:59.124Z,56.20
2019-05-29T07:03:27.746Z,56.20
2019-05-29T07:05:59.089Z,56.10
2019-05-29T07:08:38.109Z,56.00
2019-05-29T07:10:58.543Z,56.00
2019-05-29T07:13:27.224Z,56.00
2019-05-29T07:15:55.799Z,55.90
2019-05-29T07:18:24.292Z,55.90
2019-05-29T07:20:52.817Z,56.00
2019-05-29T07:23:21.329Z,56.00
2019-05-29T07:25:51.903Z,55.90
2019-05-29T07:28:32.479Z,55.70
2019-05-29T07:31:03.421Z,55.60
2019-05-29T07:33:31.321Z,55.60
2019-05-29T07:36:05.842Z,55.60
2019-05-29T07:38:34.532Z,55.40
2019-05-29T07:41:03.145Z,55.40
2019-05-29T07:43:31.793Z,55.30
2019-05-29T07:46:00.409Z,55.30
2019-05-29T07:48:34.116Z,55.30
2019-05-29T07:51:06.986Z,55.30
2019-05-29T07:53:33.768Z,55.20
2019-05-29T07:56:02.376Z,55.20
2019-05-29T07:58:30.944Z,55.20
2019-05-29T08:01:11.612Z,55.10
2019-05-29T08:03:29.748Z,55.10
2019-05-29T08:05:58.352Z,55.00
2019-05-29T08:08:26.837Z,55.00
2019-05-29T08:10:55.355Z,55.00
2019-05-29T08:13:27.733Z,55.30
2019-05-29T08:16:02.660Z,55.50
2019-05-29T08:18:29.338Z,55.60
2019-05-29T08:20:57.933Z,55.30
2019-05-29T08:23:26.613Z,55.10
2019-05-29T08:25:55.338Z,54.90
2019-05-29T08:28:23.871Z,54.90
2019-05-29T08:30:56.233Z,54.90
2019-05-29T08:33:22.835Z,54.90
2019-05-29T08:36:00.119Z,54.90
2019-05-29T08:38:26.320Z,54.90
2019-05-29T08:40:54.889Z,54.80
2019-05-29T08:43:23.445Z,54.70
2019-05-29T08:45:53.711Z,54.60
2019-05-29T08:48:22.272Z,54.50
2019-05-29T08:50:51.980Z,54.40
2019-05-29T08:53:20.618Z,54.30
2019-05-29T08:55:52.705Z,54.20
2019-05-29T08:58:21.511Z,54.30
2019-05-29T09:00:53.599Z,54.30
2019-05-29T09:03:20.468Z,54.40
2019-05-29T09:06:06.138Z,54.40
2019-05-29T09:08:19.420Z,54.30
2019-05-29T09:10:49.622Z,54.20
2019-05-29T09:13:18.354Z,54.20
2019-05-29T09:15:47.620Z,54.10
2019-05-29T09:18:17.048Z,54.20
2019-05-29T09:21:02.233Z,54.20
2019-05-29T09:23:16.882Z,54.20
2019-05-29T09:25:45.553Z,54.30
2019-05-29T09:28:14.693Z,54.20
2019-05-29T09:30:44.132Z,54.20
2019-05-29T09:33:15.312Z,54.20
2019-05-29T09:35:43.209Z,54.20
2019-05-29T09:38:11.801Z,54.20
2019-05-29T09:40:40.507Z,54.10
2019-05-29T09:43:09.176Z,54.10
2019-05-29T09:45:37.808Z,54.20
2019-05-29T09:48:06.621Z,54.20
2019-05-29T09:50:49.683Z,54.20
2019-05-29T09:53:05.535Z,54.10
2019-05-29T09:55:34.147Z,54.10
2019-05-29T09:58:02.782Z,54.10
2019-05-29T10:00:31.358Z,54.00
2019-05-29T10:03:01.327Z,53.90
2019-05-29T10:05:29.974Z,53.80
2019-05-29T10:08:02.317Z,53.90
2019-05-29T10:10:30.883Z,53.80
2019-05-29T10:12:59.981Z,53.70
2019-05-29T10:15:28.637Z,53.70
2019-05-29T10:17:58.434Z,53.80
2019-05-29T10:20:27.116Z,53.80
2019-05-29T10:22:56.823Z,53.90
2019-05-29T10:25:25.728Z,53.60
2019-05-29T10:27:54.259Z,53.60
2019-05-29T10:30:22.889Z,53.60
2019-05-29T10:32:52.899Z,53.60
2019-05-29T10:35:23.252Z,53.40
2019-05-29T10:37:53.007Z,53.30
2019-05-29T10:40:21.675Z,53.30
2019-05-29T10:42:51.485Z,53.40
2019-05-29T10:45:22.572Z,53.50
2019-05-29T10:47:52.330Z,53.50
2019-05-29T10:50:21.329Z,53.50
2019-05-29T10:52:50.010Z,53.70
2019-05-29T10:55:20.961Z,53.60
2019-05-29T10:57:50.766Z,53.50
2019-05-29T11:00:19.784Z,53.40
2019-05-29T11:02:49.969Z,53.50
2019-05-29T11:05:18.575Z,53.50
2019-05-29T11:07:47.668Z,53.20
2019-05-29T11:10:16.251Z,53.10
2019-05-29T11:12:44.791Z,52.90
2019-05-29T11:15:21.263Z,53.00
2019-05-29T11:17:43.646Z,53.10
2019-05-29T11:20:12.305Z,53.10
2019-05-29T11:22:40.905Z,52.90
2019-05-29T11:25:21.673Z,52.80
2019-05-29T11:27:39.745Z,52.80
2019-05-29T11:30:09.400Z,52.90
2019-05-29T11:32:38.019Z,52.80
2019-05-29T11:35:06.573Z,52.60
2019-05-29T11:37:35.173Z,52.70
2019-05-29T11:40:04.636Z,53.20
2019-05-29T11:42:33.266Z,53.70
2019-05-29T11:45:01.853Z,53.60
2019-05-29T11:47:30.436Z,53.50
2019-05-29T11:50:03.504Z,53.40
2019-05-29T11:52:39.827Z,53.40
2019-05-29T11:55:03.310Z,53.30
2019-05-29T11:57:30.054Z,53.60
2019-05-29T12:00:05.898Z,54.00
2019-05-29T12:02:29.079Z,53.80
2019-05-29T12:05:01.160Z,53.60
2019-05-29T12:07:27.979Z,53.80
2019-05-29T12:09:57.540Z,54.10
2019-05-29T12:12:26.202Z,54.20
2019-05-29T12:15:06.022Z,54.50
2019-05-29T12:17:24.999Z,54.90
2019-05-29T12:19:54.195Z,55.20
2019-05-29T12:22:22.768Z,55.50
2019-05-29T12:24:52.492Z,55.80
2019-05-29T12:27:21.405Z,55.90
2019-05-29T12:29:50.254Z,55.70
2019-05-29T12:32:19.053Z,55.30
2019-05-29T12:34:53.680Z,54.30
2019-05-29T12:37:18.095Z,54.20
2019-05-29T12:39:46.854Z,54.00
2019-05-29T12:42:15.676Z,54.30
2019-05-29T12:44:44.344Z,54.40
2019-05-29T12:47:12.904Z,54.10
2019-05-29T12:49:41.457Z,53.60
2019-05-29T12:52:10.291Z,53.60
2019-05-29T12:54:39.025Z,53.90
2019-05-29T12:57:07.577Z,54.20
2019-05-29T12:59:37.773Z,54.00
2019-05-29T13:02:06.266Z,53.80
2019-05-29T13:05:05.122Z,53.70
2019-05-29T13:07:05.125Z,53.90
2019-05-29T13:09:34.575Z,54.20
2019-05-29T13:12:04.670Z,53.90
2019-05-29T13:14:33.403Z,54.20
2019-05-29T13:17:03.048Z,54.30
2019-05-29T13:19:31.729Z,53.90
2019-05-29T13:22:01.402Z,54.10
2019-05-29T13:24:30.303Z,54.20
2019-05-29T13:26:59.602Z,54.10
2019-05-29T13:29:28.379Z,53.10
2019-05-29T13:31:57.962Z,54.40
2019-05-29T13:34:27.209Z,54.00
2019-05-29T13:36:59.814Z,54.00
2019-05-29T13:39:29.191Z,54.00
2019-05-29T13:41:56.408Z,53.80
2019-05-29T13:44:24.985Z,53.80
2019-05-29T13:46:53.718Z,53.00
2019-05-29T13:49:22.313Z,53.20
2019-05-29T13:51:50.888Z,53.40
2019-05-29T13:54:19.487Z,53.60
2019-05-29T13:56:48.175Z,53.50
2019-05-29T13:59:16.729Z,52.90
2019-05-29T14:01:48.209Z,52.00
2019-05-29T14:04:15.532Z,51.40
2019-05-29T14:06:44.192Z,51.10
2019-05-29T14:09:12.753Z,51.10
2019-05-29T14:11:41.387Z,51.60
2019-05-29T14:14:13.334Z,52.20
2019-05-29T14:16:40.300Z,52.40
2019-05-29T14:19:08.898Z,51.90
2019-05-29T14:21:37.470Z,51.40
2019-05-29T14:24:23.482Z,51.40
2019-05-29T14:26:36.499Z,51.20
2019-05-29T14:29:05.956Z,49.70
2019-05-29T14:31:34.781Z,49.50
2019-05-29T14:34:03.383Z,49.80
2019-05-29T14:36:31.910Z,50.10
2019-05-29T14:39:01.542Z,50.30
2019-05-29T14:41:30.172Z,50.20
2019-05-29T14:43:58.773Z,50.40
2019-05-29T14:46:27.388Z,50.60
2019-05-29T14:48:55.982Z,49.70
2019-05-29T14:51:24.745Z,48.10
2019-05-29T14:53:53.344Z,47.20
2019-05-29T14:56:21.979Z,45.60
2019-05-29T14:58:50.578Z,45.00
2019-05-29T15:01:19.209Z,45.30
2019-05-29T15:03:47.781Z,45.20
2019-05-29T15:06:16.601Z,44.60
2019-05-29T15:08:45.111Z,44.10
2019-05-29T15:11:14.104Z,45.60
2019-05-29T15:13:42.782Z,46.90
2019-05-29T15:16:12.771Z,45.70
2019-05-29T15:18:41.534Z,44.50
2019-05-29T15:21:10.968Z,43.70
2019-05-29T15:23:39.907Z,45.00
2019-05-29T15:26:09.573Z,46.90
2019-05-29T15:28:38.164Z,47.80
2019-05-29T15:31:07.045Z,46.20
2019-05-29T15:33:36.855Z,44.40
2019-05-29T15:36:06.451Z,45.20
2019-05-29T15:38:36.033Z,46.90
2019-05-29T15:41:04.696Z,48.30
2019-05-29T15:43:33.240Z,48.70
2019-05-29T15:46:02.532Z,47.90
2019-05-29T15:48:31.018Z,47.30
2019-05-29T15:50:59.511Z,45.50
2019-05-29T15:53:28.076Z,43.20
2019-05-29T15:55:56.610Z,44.60
2019-05-29T15:58:25.189Z,46.60
2019-05-29T16:00:53.766Z,49.00
2019-05-29T16:03:22.360Z,49.50
2019-05-29T16:05:50.930Z,50.00
2019-05-29T16:08:19.538Z,48.80
2019-05-29T16:10:48.038Z,46.60
2019-05-29T16:13:17.301Z,46.40
2019-05-29T16:15:45.966Z,47.30
2019-05-29T16:18:26.191Z,48.10
2019-05-29T16:20:44.750Z,48.90
2019-05-29T16:23:28.304Z,49.50
2019-05-29T16:25:43.536Z,50.00
2019-05-29T16:28:13.072Z,50.10
2019-05-29T16:30:41.660Z,50.10
2019-05-29T16:33:10.902Z,50.10
2019-05-29T16:35:39.562Z,49.90
2019-05-29T16:38:08.160Z,49.10
2019-05-29T16:40:36.676Z,45.30
2019-05-29T16:43:05.207Z,42.30
2019-05-29T16:45:33.740Z,40.70
2019-05-29T16:48:02.711Z,39.80
2019-05-29T16:50:31.259Z,40.90
2019-05-29T16:52:59.788Z,43.70
2019-05-29T16:55:28.363Z,46.00
2019-05-29T16:57:56.982Z,47.50
2019-05-29T17:00:25.543Z,48.40
2019-05-29T17:02:54.043Z,49.10
2019-05-29T17:05:24.162Z,49.60
2019-05-29T17:07:52.863Z,49.90
2019-05-29T17:10:24.742Z,50.10
2019-05-29T17:12:53.355Z,50.30
2019-05-29T17:15:22.837Z,50.30
2019-05-29T17:17:51.454Z,50.30
2019-05-29T17:20:23.255Z,50.50
2019-05-29T17:22:51.948Z,50.70
2019-05-29T17:25:20.744Z,50.80
2019-05-29T17:27:50.782Z,50.90
2019-05-29T17:30:23.050Z,50.90
2019-05-29T17:32:51.766Z,50.90
2019-05-29T17:35:21.221Z,50.90
2019-05-29T17:37:49.909Z,50.90
2019-05-29T17:40:19.163Z,50.70
2019-05-29T17:42:47.842Z,50.60
2019-05-29T17:45:20.908Z,50.40
2019-05-29T17:47:46.755Z,50.30
2019-05-29T17:50:19.872Z,50.20
2019-05-29T17:52:45.649Z,50.10
2019-05-29T17:55:14.173Z,50.00
2019-05-29T17:57:42.862Z,49.80
2019-05-29T18:00:18.065Z,49.80
2019-05-29T18:02:51.824Z,49.80
2019-05-29T18:05:18.312Z,49.90
2019-05-29T18:07:47.247Z,50.10
2019-05-29T18:10:18.839Z,50.20
2019-05-29T18:12:46.095Z,50.30
2019-05-29T18:15:14.666Z,50.50
2019-05-29T18:17:44.368Z,50.50
2019-05-29T18:20:14.745Z,50.60
2019-05-29T18:22:43.195Z,50.80
2019-05-29T18:25:12.132Z,50.80
2019-05-29T18:27:40.695Z,50.80
2019-05-29T18:30:09.469Z,50.80
2019-05-29T18:32:38.211Z,50.90
2019-05-29T18:35:07.960Z,50.90
2019-05-29T18:37:36.731Z,50.90
2019-05-29T18:40:12.669Z,51.00
2019-05-29T18:42:40.485Z,50.90
2019-05-29T18:45:20.213Z,51.00
2019-05-29T18:47:41.599Z,51.00
2019-05-29T18:50:10.820Z,50.90
2019-05-29T18:52:39.466Z,51.00
2019-05-29T18:55:08.179Z,51.00
2019-05-29T18:57:36.781Z,51.10
2019-05-29T19:00:08.495Z,51.10
2019-05-29T19:02:37.024Z,51.10
2019-05-29T19:05:06.126Z,51.00
2019-05-29T19:07:34.712Z,51.00
2019-05-29T19:10:06.707Z,51.00
2019-05-29T19:12:35.693Z,51.00
2019-05-29T19:15:06.277Z,51.00
2019-05-29T19:17:34.791Z,51.00
2019-05-29T19:20:03.510Z,51.00
2019-05-29T19:22:32.645Z,50.90
2019-05-29T19:25:01.556Z,50.90
2019-05-29T19:27:39.081Z,50.90
2019-05-29T19:30:00.667Z,50.90
2019-05-29T19:32:29.398Z,50.90
2019-05-29T19:34:57.993Z,50.90
2019-05-29T19:37:27.817Z,50.80
2019-05-29T19:39:56.498Z,50.80
2019-05-29T19:42:26.122Z,50.70
2019-05-29T19:44:54.777Z,50.80
2019-05-29T19:47:24.507Z,50.80
2019-05-29T19:49:53.363Z,50.80
2019-05-29T19:52:22.069Z,51.40
2019-05-29T19:54:50.804Z,50.80
2019-05-29T19:57:19.846Z,50.80
2019-05-29T19:59:48.465Z,50.90
2019-05-29T20:02:17.807Z,50.90
2019-05-29T20:04:46.412Z,50.90
2019-05-29T20:07:15.294Z,50.90
2019-05-29T20:09:43.934Z,50.90
2019-05-29T20:12:14.175Z,50.90
2019-05-29T20:14:42.890Z,50.90
2019-05-29T20:17:11.490Z,50.90
2019-05-29T20:19:41.037Z,50.90
2019-05-29T20:22:09.637Z,50.90
2019-05-29T20:24:39.060Z,50.90
2019-05-29T20:27:07.746Z,51.00
2019-05-29T20:29:36.475Z,50.90
2019-05-29T20:32:05.071Z,51.00
2019-05-29T20:34:34.687Z,51.00
2019-05-29T20:37:03.361Z,51.00
2019-05-29T20:39:32.963Z,51.00
2019-05-29T20:42:02.269Z,51.60
2019-05-29T20:44:30.983Z,51.10
2019-05-29T20:46:59.692Z,51.10
2019-05-29T20:49:28.280Z,51.20
2019-05-29T20:51:56.781Z,51.10
2019-05-29T20:54:25.332Z,51.20
2019-05-29T20:56:53.986Z,51.20
2019-05-29T20:59:22.513Z,51.20
2019-05-29T21:01:51.204Z,51.20
2019-05-29T21:04:19.812Z,51.20
2019-05-29T21:06:48.388Z,51.20
2019-05-29T21:09:17.022Z,51.20
2019-05-29T21:11:45.610Z,51.20
2019-05-29T21:14:14.537Z,51.20
2019-05-29T21:16:46.318Z,51.30
2019-05-29T21:19:14.901Z,51.30
2019-05-29T21:21:44.564Z,51.40
2019-05-29T21:24:13.209Z,51.40
2019-05-29T21:26:43.126Z,51.40
2019-05-29T21:29:11.802Z,51.40
2019-05-29T21:31:41.633Z,51.50
2019-05-29T21:34:10.252Z,51.50
2019-05-29T21:36:39.938Z,51.40
2019-05-29T21:39:08.553Z,51.50
2019-05-29T21:41:38.384Z,51.50
2019-05-29T21:44:07.007Z,51.50
2019-05-29T21:46:36.685Z,51.50
2019-05-29T21:49:05.353Z,52.10
2019-05-29T21:51:33.992Z,51.50
2019-05-29T21:54:02.537Z,51.50
2019-05-29T21:56:31.186Z,51.40
2019-05-29T21:59:03.846Z,51.40
2019-05-29T22:01:29.998Z,51.50
2019-05-29T22:03:58.891Z,51.50
2019-05-29T22:06:27.658Z,51.60
2019-05-29T22:08:56.164Z,51.50
2019-05-29T22:11:24.796Z,51.50
2019-05-29T22:13:54.189Z,51.50
2019-05-29T22:16:22.944Z,51.50
2019-05-29T22:18:52.774Z,51.50
2019-05-29T22:21:21.404Z,51.50
2019-05-29T22:23:51.015Z,51.60
2019-05-29T22:26:19.621Z,51.60
2019-05-29T22:28:48.198Z,51.70
2019-05-29T22:31:17.005Z,51.70
2019-05-29T22:33:45.584Z,51.70
2019-05-29T22:36:14.307Z,51.80
2019-05-29T22:38:43.056Z,51.80
2019-05-29T22:41:11.545Z,51.80
2019-05-29T22:43:40.138Z,51.80
2019-05-29T22:46:08.744Z,51.70
2019-05-29T22:48:37.285Z,51.70
2019-05-29T22:51:05.849Z,51.70
2019-05-29T22:53:34.335Z,51.60
2019-05-29T22:56:02.984Z,51.70
2019-05-29T22:58:31.511Z,51.70
2019-05-29T23:01:00.163Z,51.70
2019-05-29T23:03:28.866Z,51.70
2019-05-29T23:05:58.241Z,51.70
2019-05-29T23:08:26.893Z,51.80
2019-05-29T23:10:56.209Z,51.80
2019-05-29T23:13:24.795Z,51.90
2019-05-29T23:15:54.466Z,51.80
2019-05-29T23:18:23.188Z,51.90
2019-05-29T23:20:52.397Z,51.90
2019-05-29T23:23:21.102Z,52.00
2019-05-29T23:25:49.708Z,51.90
2019-05-29T23:28:18.287Z,51.90
2019-05-29T23:30:46.811Z,52.00
2019-05-29T23:33:15.343Z,52.00
2019-05-29T23:35:43.965Z,52.00
2019-05-29T23:38:12.503Z,52.60
2019-05-29T23:40:41.496Z,52.10
2019-05-29T23:43:10.036Z,52.10
2019-05-29T23:45:38.602Z,52.10
2019-05-29T23:48:07.511Z,52.10
2019-05-29T23:50:36.078Z,52.10
2019-05-29T23:53:04.635Z,52.10
2019-05-29T23:55:33.311Z,52.10
2019-05-29T23:58:02.116Z,52.10
